Richford, Vermont
Current Conditions -  °F | °C
As of 11:35 PM on Saturday 22 Nov 2014 (Local Time) from KFSO Reporting Station
Overcast Overcast  
Wind Chill: 33°   Ceiling: 2500
Heat Index: 38°   Visibility: 10mi
Dew Point: 28°   Wind: 7mph
Humidity: 67%   Direction: 200°SSW
Pressure: 29.92"   Gusts: NA
Location:  45°N, 72.67°W
Report Text: KFSO 230435Z AUTO 20006KT 150V220 10SM OVC025 03/M02 A2992 RMK AO2 T00331024
Loading
Personal Weather Stations






























Interactive Weather Map New forecast layout! Learn more

10-Day Weather Forecast

Advertisements
Track Severe Weather on mobile